sensor_id;sensor_type;location;lat;lon;timestamp;temperature;humidity
4699;DHT22;33708;49.466;11.176;2023-03-21T00:01:56;7.60;30.60
4699;DHT22;33708;49.466;11.176;2023-03-21T00:04:23;7.60;29.50
4699;DHT22;33708;49.466;11.176;2023-03-21T00:06:49;7.60;33.40
4699;DHT22;33708;49.466;11.176;2023-03-21T00:09:15;7.70;30.40
4699;DHT22;33708;49.466;11.176;2023-03-21T00:11:41;7.80;32.10
4699;DHT22;33708;49.466;11.176;2023-03-21T00:14:06;7.90;32.90
4699;DHT22;33708;49.466;11.176;2023-03-21T00:16:33;8.10;38.20
4699;DHT22;33708;49.466;11.176;2023-03-21T00:19:00;8.10;33.30
4699;DHT22;33708;49.466;11.176;2023-03-21T00:21:28;8.00;31.50
4699;DHT22;33708;49.466;11.176;2023-03-21T00:23:58;7.90;30.20
4699;DHT22;33708;49.466;11.176;2023-03-21T00:26:24;7.90;30.20
4699;DHT22;33708;49.466;11.176;2023-03-21T00:28:50;7.70;29.40
4699;DHT22;33708;49.466;11.176;2023-03-21T00:31:16;7.70;29.10
4699;DHT22;33708;49.466;11.176;2023-03-21T00:33:42;7.80;32.00
4699;DHT22;33708;49.466;11.176;2023-03-21T00:36:09;8.00;33.50
4699;DHT22;33708;49.466;11.176;2023-03-21T00:38:36;8.00;31.50
4699;DHT22;33708;49.466;11.176;2023-03-21T00:41:06;7.80;30.60
4699;DHT22;33708;49.466;11.176;2023-03-21T00:43:32;7.80;31.30
4699;DHT22;33708;49.466;11.176;2023-03-21T00:45:58;7.70;30.00
4699;DHT22;33708;49.466;11.176;2023-03-21T00:48:25;7.70;30.20
4699;DHT22;33708;49.466;11.176;2023-03-21T00:50:53;7.70;30.20
4699;DHT22;33708;49.466;11.176;2023-03-21T00:53:19;7.80;33.50
4699;DHT22;33708;49.466;11.176;2023-03-21T00:55:45;7.90;33.20
4699;DHT22;33708;49.466;11.176;2023-03-21T00:58:10;7.80;32.10
4699;DHT22;33708;49.466;11.176;2023-03-21T01:00:36;7.80;32.40
4699;DHT22;33708;49.466;11.176;2023-03-21T01:03:05;7.60;32.00
4699;DHT22;33708;49.466;11.176;2023-03-21T01:05:36;7.60;31.30
4699;DHT22;33708;49.466;11.176;2023-03-21T01:08:21;7.60;32.70
4699;DHT22;33708;49.466;11.176;2023-03-21T01:10:49;7.60;33.40
4699;DHT22;33708;49.466;11.176;2023-03-21T01:13:16;7.50;34.10
4699;DHT22;33708;49.466;11.176;2023-03-21T01:15:51;7.30;31.50
4699;DHT22;33708;49.466;11.176;2023-03-21T01:18:20;7.20;30.70
4699;DHT22;33708;49.466;11.176;2023-03-21T01:20:46;7.10;30.00
4699;DHT22;33708;49.466;11.176;2023-03-21T01:23:13;7.00;29.70
4699;DHT22;33708;49.466;11.176;2023-03-21T01:25:40;7.00;30.00
4699;DHT22;33708;49.466;11.176;2023-03-21T01:28:06;7.10;32.40
4699;DHT22;33708;49.466;11.176;2023-03-21T01:30:31;7.10;33.00
4699;DHT22;33708;49.466;11.176;2023-03-21T01:32:57;7.10;32.30
4699;DHT22;33708;49.466;11.176;2023-03-21T01:35:23;7.00;31.40
4699;DHT22;33708;49.466;11.176;2023-03-21T01:37:50;7.10;33.10
4699;DHT22;33708;49.466;11.176;2023-03-21T01:40:26;7.00;32.80
4699;DHT22;33708;49.466;11.176;2023-03-21T01:42:52;7.00;33.70
4699;DHT22;33708;49.466;11.176;2023-03-21T01:48:26;6.80;35.20
4699;DHT22;33708;49.466;11.176;2023-03-21T01:50:54;6.80;35.80
4699;DHT22;33708;49.466;11.176;2023-03-21T01:53:23;6.80;37.50
4699;DHT22;33708;49.466;11.176;2023-03-21T01:55:53;6.80;37.30
4699;DHT22;33708;49.466;11.176;2023-03-21T01:58:18;6.80;35.90
4699;DHT22;33708;49.466;11.176;2023-03-21T02:00:46;6.80;37.00
4699;DHT22;33708;49.466;11.176;2023-03-21T02:03:13;6.90;37.90
4699;DHT22;33708;49.466;11.176;2023-03-21T02:08:12;6.80;37.90
4699;DHT22;33708;49.466;11.176;2023-03-21T02:10:40;6.90;41.10
4699;DHT22;33708;49.466;11.176;2023-03-21T02:13:07;7.60;40.20
4699;DHT22;33708;49.466;11.176;2023-03-21T02:15:40;7.50;40.10
4699;DHT22;33708;49.466;11.176;2023-03-21T02:18:26;7.00;40.60
4699;DHT22;33708;49.466;11.176;2023-03-21T02:26:48;7.00;39.80
4699;DHT22;33708;49.466;11.176;2023-03-21T02:32:10;7.00;39.90
4699;DHT22;33708;49.466;11.176;2023-03-21T02:35:09;6.90;40.10
4699;DHT22;33708;49.466;11.176;2023-03-21T02:38:26;7.00;42.80
4699;DHT22;33708;49.466;11.176;2023-03-21T02:40:42;7.00;41.00
4699;DHT22;33708;49.466;11.176;2023-03-21T02:43:43;7.10;42.70
4699;DHT22;33708;49.466;11.176;2023-03-21T02:46:16;7.10;40.30
4699;DHT22;33708;49.466;11.176;2023-03-21T02:48:56;7.10;38.50
4699;DHT22;33708;49.466;11.176;2023-03-21T02:51:25;7.10;39.00
4699;DHT22;33708;49.466;11.176;2023-03-21T02:53:59;7.10;40.10
4699;DHT22;33708;49.466;11.176;2023-03-21T02:56:27;7.10;38.20
4699;DHT22;33708;49.466;11.176;2023-03-21T02:58:53;7.20;38.90
4699;DHT22;33708;49.466;11.176;2023-03-21T03:01:19;7.20;37.70
4699;DHT22;33708;49.466;11.176;2023-03-21T03:03:45;7.30;38.60
4699;DHT22;33708;49.466;11.176;2023-03-21T03:06:18;7.30;37.50
4699;DHT22;33708;49.466;11.176;2023-03-21T03:09:21;7.10;35.10
4699;DHT22;33708;49.466;11.176;2023-03-21T03:11:53;6.90;32.30
4699;DHT22;33708;49.466;11.176;2023-03-21T03:14:35;6.90;33.10
4699;DHT22;33708;49.466;11.176;2023-03-21T03:17:17;6.80;31.70
4699;DHT22;33708;49.466;11.176;2023-03-21T03:22:38;6.70;31.80
4699;DHT22;33708;49.466;11.176;2023-03-21T03:25:09;6.80;34.00
4699;DHT22;33708;49.466;11.176;2023-03-21T03:27:40;6.70;30.70
4699;DHT22;33708;49.466;11.176;2023-03-21T03:30:08;6.90;36.90
4699;DHT22;33708;49.466;11.176;2023-03-21T03:32:53;6.90;33.30
4699;DHT22;33708;49.466;11.176;2023-03-21T03:35:21;7.10;34.10
4699;DHT22;33708;49.466;11.176;2023-03-21T03:37:55;7.00;32.80
4699;DHT22;33708;49.466;11.176;2023-03-21T03:40:48;6.90;31.70
4699;DHT22;33708;49.466;11.176;2023-03-21T03:43:21;7.10;35.60
4699;DHT22;33708;49.466;11.176;2023-03-21T03:45:55;7.10;34.10
4699;DHT22;33708;49.466;11.176;2023-03-21T03:49:00;7.10;34.80
4699;DHT22;33708;49.466;11.176;2023-03-21T03:52:21;7.20;36.00
4699;DHT22;33708;49.466;11.176;2023-03-21T03:54:20;7.20;37.00
4699;DHT22;33708;49.466;11.176;2023-03-21T03:56:47;7.00;34.30
4699;DHT22;33708;49.466;11.176;2023-03-21T03:59:14;7.00;36.70
4699;DHT22;33708;49.466;11.176;2023-03-21T04:01:44;7.00;35.20
4699;DHT22;33708;49.466;11.176;2023-03-21T04:04:10;7.00;35.20
4699;DHT22;33708;49.466;11.176;2023-03-21T04:06:35;6.90;35.40
4699;DHT22;33708;49.466;11.176;2023-03-21T04:09:03;6.90;35.00
4699;DHT22;33708;49.466;11.176;2023-03-21T04:11:29;6.80;32.40
4699;DHT22;33708;49.466;11.176;2023-03-21T04:13:54;6.80;32.70
4699;DHT22;33708;49.466;11.176;2023-03-21T04:16:20;6.60;32.70
4699;DHT22;33708;49.466;11.176;2023-03-21T04:18:47;6.60;32.90
4699;DHT22;33708;49.466;11.176;2023-03-21T04:21:13;6.70;36.00
4699;DHT22;33708;49.466;11.176;2023-03-21T04:23:40;6.60;31.80
4699;DHT22;33708;49.466;11.176;2023-03-21T04:26:06;6.50;45.50
4699;DHT22;33708;49.466;11.176;2023-03-21T04:28:32;6.40;30.20
4699;DHT22;33708;49.466;11.176;2023-03-21T04:30:58;6.20;30.70
4699;DHT22;33708;49.466;11.176;2023-03-21T04:33:25;6.30;32.20
4699;DHT22;33708;49.466;11.176;2023-03-21T04:35:51;6.40;32.30
4699;DHT22;33708;49.466;11.176;2023-03-21T04:38:21;6.30;30.20
4699;DHT22;33708;49.466;11.176;2023-03-21T04:40:47;6.40;32.60
4699;DHT22;33708;49.466;11.176;2023-03-21T04:43:13;6.50;33.70
4699;DHT22;33708;49.466;11.176;2023-03-21T04:45:38;6.80;39.10
4699;DHT22;33708;49.466;11.176;2023-03-21T04:48:04;6.90;37.10
4699;DHT22;33708;49.466;11.176;2023-03-21T04:50:30;7.00;38.00
4699;DHT22;33708;49.466;11.176;2023-03-21T04:52:56;7.00;35.20
4699;DHT22;33708;49.466;11.176;2023-03-21T04:55:22;7.10;35.60
4699;DHT22;33708;49.466;11.176;2023-03-21T04:57:49;7.10;35.50
4699;DHT22;33708;49.466;11.176;2023-03-21T05:00:15;6.90;32.40
4699;DHT22;33708;49.466;11.176;2023-03-21T05:02:41;6.90;30.60
4699;DHT22;33708;49.466;11.176;2023-03-21T05:05:07;6.80;29.80
4699;DHT22;33708;49.466;11.176;2023-03-21T05:07:37;6.60;29.20
4699;DHT22;33708;49.466;11.176;2023-03-21T05:10:03;6.70;46.30
4699;DHT22;33708;49.466;11.176;2023-03-21T05:12:29;6.60;29.70
4699;DHT22;33708;49.466;11.176;2023-03-21T05:14:55;6.40;27.70
4699;DHT22;33708;49.466;11.176;2023-03-21T05:17:20;6.30;27.40
4699;DHT22;33708;49.466;11.176;2023-03-21T05:19:50;6.30;27.10
4699;DHT22;33708;49.466;11.176;2023-03-21T05:22:18;6.30;27.20
4699;DHT22;33708;49.466;11.176;2023-03-21T05:24:44;6.20;27.90
4699;DHT22;33708;49.466;11.176;2023-03-21T05:27:18;6.40;30.00
4699;DHT22;33708;49.466;11.176;2023-03-21T05:30:10;6.30;29.20
4699;DHT22;33708;49.466;11.176;2023-03-21T05:32:36;6.50;30.80
4699;DHT22;33708;49.466;11.176;2023-03-21T05:35:02;6.70;32.90
4699;DHT22;33708;49.466;11.176;2023-03-21T05:37:27;6.70;33.40
4699;DHT22;33708;49.466;11.176;2023-03-21T05:39:53;6.80;35.30
4699;DHT22;33708;49.466;11.176;2023-03-21T05:42:19;7.20;42.70
4699;DHT22;33708;49.466;11.176;2023-03-21T05:44:45;7.50;43.30
4699;DHT22;33708;49.466;11.176;2023-03-21T05:47:12;7.40;40.20
4699;DHT22;33708;49.466;11.176;2023-03-21T05:49:38;7.50;42.40
4699;DHT22;33708;49.466;11.176;2023-03-21T05:52:04;7.80;47.30
4699;DHT22;33708;49.466;11.176;2023-03-21T05:54:30;7.80;44.30
4699;DHT22;33708;49.466;11.176;2023-03-21T05:56:55;8.10;44.40
4699;DHT22;33708;49.466;11.176;2023-03-21T05:59:21;7.90;42.90
4699;DHT22;33708;49.466;11.176;2023-03-21T06:01:46;8.10;46.20
4699;DHT22;33708;49.466;11.176;2023-03-21T06:04:13;8.40;50.60
4699;DHT22;33708;49.466;11.176;2023-03-21T06:06:39;8.70;50.80
4699;DHT22;33708;49.466;11.176;2023-03-21T06:09:04;8.90;53.90
4699;DHT22;33708;49.466;11.176;2023-03-21T06:11:33;8.90;50.30
4699;DHT22;33708;49.466;11.176;2023-03-21T06:14:00;9.10;52.30
4699;DHT22;33708;49.466;11.176;2023-03-21T06:16:26;9.30;52.90
4699;DHT22;33708;49.466;11.176;2023-03-21T06:18:53;9.60;54.40
4699;DHT22;33708;49.466;11.176;2023-03-21T06:21:19;9.60;52.00
4699;DHT22;33708;49.466;11.176;2023-03-21T06:23:45;9.20;46.10
4699;DHT22;33708;49.466;11.176;2023-03-21T06:26:11;9.40;48.20
4699;DHT22;33708;49.466;11.176;2023-03-21T06:28:37;9.30;46.40
4699;DHT22;33708;49.466;11.176;2023-03-21T06:31:03;9.50;46.20
4699;DHT22;33708;49.466;11.176;2023-03-21T06:33:29;9.50;46.50
4699;DHT22;33708;49.466;11.176;2023-03-21T06:35:56;9.50;44.60
4699;DHT22;33708;49.466;11.176;2023-03-21T06:38:22;9.80;46.40
4699;DHT22;33708;49.466;11.176;2023-03-21T06:40:48;10.00;47.60
4699;DHT22;33708;49.466;11.176;2023-03-21T06:43:14;9.80;44.00
4699;DHT22;33708;49.466;11.176;2023-03-21T06:45:43;9.90;43.40
4699;DHT22;33708;49.466;11.176;2023-03-21T06:48:09;9.70;41.50
4699;DHT22;33708;49.466;11.176;2023-03-21T06:50:35;9.70;42.00
4699;DHT22;33708;49.466;11.176;2023-03-21T06:53:01;9.80;41.10
4699;DHT22;33708;49.466;11.176;2023-03-21T06:55:26;9.80;42.10
4699;DHT22;33708;49.466;11.176;2023-03-21T06:57:53;10.10;41.60
4699;DHT22;33708;49.466;11.176;2023-03-21T07:00:20;10.10;42.90
4699;DHT22;33708;49.466;11.176;2023-03-21T07:02:46;10.70;44.70
4699;DHT22;33708;49.466;11.176;2023-03-21T07:05:12;10.90;44.00
4699;DHT22;33708;49.466;11.176;2023-03-21T07:07:38;11.20;46.40
4699;DHT22;33708;49.466;11.176;2023-03-21T07:10:05;11.90;51.30
4699;DHT22;33708;49.466;11.176;2023-03-21T07:12:30;11.70;48.10
4699;DHT22;33708;49.466;11.176;2023-03-21T07:15:03;12.80;51.00
4699;DHT22;33708;49.466;11.176;2023-03-21T07:17:30;13.40;52.90
4699;DHT22;33708;49.466;11.176;2023-03-21T07:19:55;13.80;50.90
4699;DHT22;33708;49.466;11.176;2023-03-21T07:22:21;14.20;47.70
4699;DHT22;33708;49.466;11.176;2023-03-21T07:24:46;14.70;48.10
4699;DHT22;33708;49.466;11.176;2023-03-21T07:27:16;15.20;45.10
4699;DHT22;33708;49.466;11.176;2023-03-21T07:29:42;15.80;42.90
4699;DHT22;33708;49.466;11.176;2023-03-21T07:32:12;15.90;36.20
4699;DHT22;33708;49.466;11.176;2023-03-21T07:34:37;16.60;33.20
4699;DHT22;33708;49.466;11.176;2023-03-21T07:37:04;16.60;27.00
4699;DHT22;33708;49.466;11.176;2023-03-21T07:39:31;17.20;26.80
4699;DHT22;33708;49.466;11.176;2023-03-21T07:41:57;17.70;25.50
4699;DHT22;33708;49.466;11.176;2023-03-21T07:44:24;18.20;22.60
4699;DHT22;33708;49.466;11.176;2023-03-21T07:46:49;18.30;17.90
4699;DHT22;33708;49.466;11.176;2023-03-21T07:49:15;17.80;11.30
4699;DHT22;33708;49.466;11.176;2023-03-21T07:51:41;17.80;9.80
4699;DHT22;33708;49.466;11.176;2023-03-21T07:54:06;17.70;7.80
4699;DHT22;33708;49.466;11.176;2023-03-21T07:56:32;16.80;1.00
4699;DHT22;33708;49.466;11.176;2023-03-21T07:58:58;18.10;7.80
4699;DHT22;33708;49.466;11.176;2023-03-21T08:01:24;20.50;14.60
4699;DHT22;33708;49.466;11.176;2023-03-21T08:03:51;24.40;18.60
4699;DHT22;33708;49.466;11.176;2023-03-21T08:06:19;25.50;22.20
4699;DHT22;33708;49.466;11.176;2023-03-21T08:08:45;24.30;1.00
4699;DHT22;33708;49.466;11.176;2023-03-21T08:11:11;26.10;1.00
4699;DHT22;33708;49.466;11.176;2023-03-21T08:16:03;26.80;1.00
4699;DHT22;33708;49.466;11.176;2023-03-21T08:18:29;27.80;1.00
4699;DHT22;33708;49.466;11.176;2023-03-21T08:20:56;28.10;1.00
4699;DHT22;33708;49.466;11.176;2023-03-21T08:23:22;27.50;1.00
4699;DHT22;33708;49.466;11.176;2023-03-21T08:25:55;27.40;1.00
4699;DHT22;33708;49.466;11.176;2023-03-21T08:28:22;28.00;1.00
4699;DHT22;33708;49.466;11.176;2023-03-21T08:30:48;28.40;1.00
4699;DHT22;33708;49.466;11.176;2023-03-21T08:33:14;28.30;1.00
4699;DHT22;33708;49.466;11.176;2023-03-21T08:35:40;28.90;1.00
4699;DHT22;33708;49.466;11.176;2023-03-21T08:38:06;28.30;1.00
4699;DHT22;33708;49.466;11.176;2023-03-21T08:40:32;28.00;1.00
4699;DHT22;33708;49.466;11.176;2023-03-21T08:42:58;26.80;1.00
4699;DHT22;33708;49.466;11.176;2023-03-21T08:45:24;26.80;1.00
4699;DHT22;33708;49.466;11.176;2023-03-21T08:47:49;26.40;1.00
4699;DHT22;33708;49.466;11.176;2023-03-21T08:50:17;26.50;1.00
4699;DHT22;33708;49.466;11.176;2023-03-21T08:52:43;25.20;1.00
4699;DHT22;33708;49.466;11.176;2023-03-21T08:55:10;25.30;1.00
4699;DHT22;33708;49.466;11.176;2023-03-21T08:57:36;23.70;1.00
4699;DHT22;33708;49.466;11.176;2023-03-21T09:00:06;24.20;1.00
4699;DHT22;33708;49.466;11.176;2023-03-21T09:02:37;23.80;1.00
4699;DHT22;33708;49.466;11.176;2023-03-21T09:05:03;24.10;1.00
4699;DHT22;33708;49.466;11.176;2023-03-21T09:07:30;24.70;1.00
4699;DHT22;33708;49.466;11.176;2023-03-21T09:09:58;26.00;1.00
4699;DHT22;33708;49.466;11.176;2023-03-21T09:12:24;27.20;1.00
4699;DHT22;33708;49.466;11.176;2023-03-21T09:14:50;26.00;1.00
4699;DHT22;33708;49.466;11.176;2023-03-21T09:17:18;25.00;1.00
4699;DHT22;33708;49.466;11.176;2023-03-21T09:19:44;24.40;1.00
4699;DHT22;33708;49.466;11.176;2023-03-21T09:22:12;25.50;1.00
4699;DHT22;33708;49.466;11.176;2023-03-21T09:24:39;25.50;1.00
4699;DHT22;33708;49.466;11.176;2023-03-21T09:27:06;25.60;1.00
4699;DHT22;33708;49.466;11.176;2023-03-21T09:29:32;25.90;1.00
4699;DHT22;33708;49.466;11.176;2023-03-21T09:31:58;24.70;1.00
4699;DHT22;33708;49.466;11.176;2023-03-21T09:34:24;24.60;1.00
4699;DHT22;33708;49.466;11.176;2023-03-21T09:36:50;24.30;1.00
4699;DHT22;33708;49.466;11.176;2023-03-21T09:39:19;24.00;1.00
4699;DHT22;33708;49.466;11.176;2023-03-21T09:42:09;23.00;1.00
4699;DHT22;33708;49.466;11.176;2023-03-21T09:44:47;22.00;1.00
4699;DHT22;33708;49.466;11.176;2023-03-21T09:49:49;19.00;1.00
4699;DHT22;33708;49.466;11.176;2023-03-21T09:52:29;18.40;1.00
4699;DHT22;33708;49.466;11.176;2023-03-21T09:54:56;17.70;1.00
4699;DHT22;33708;49.466;11.176;2023-03-21T09:57:41;16.50;1.00
4699;DHT22;33708;49.466;11.176;2023-03-21T10:00:19;16.50;1.00
4699;DHT22;33708;49.466;11.176;2023-03-21T10:02:51;16.50;1.00
4699;DHT22;33708;49.466;11.176;2023-03-21T10:05:24;16.10;1.00
4699;DHT22;33708;49.466;11.176;2023-03-21T10:08:07;16.40;1.00
4699;DHT22;33708;49.466;11.176;2023-03-21T10:10:46;16.40;1.00
4699;DHT22;33708;49.466;11.176;2023-03-21T10:13:19;16.20;1.00
4699;DHT22;33708;49.466;11.176;2023-03-21T10:15:45;16.20;1.00
4699;DHT22;33708;49.466;11.176;2023-03-21T10:18:20;16.30;1.00
4699;DHT22;33708;49.466;11.176;2023-03-21T10:20:48;16.00;1.00
4699;DHT22;33708;49.466;11.176;2023-03-21T10:23:16;15.70;1.00
4699;DHT22;33708;49.466;11.176;2023-03-21T10:26:01;15.50;1.00
4699;DHT22;33708;49.466;11.176;2023-03-21T10:28:31;15.60;1.00
4699;DHT22;33708;49.466;11.176;2023-03-21T10:31:01;15.70;1.00
4699;DHT22;33708;49.466;11.176;2023-03-21T10:33:33;15.70;1.00
4699;DHT22;33708;49.466;11.176;2023-03-21T10:36:04;15.70;1.00
4699;DHT22;33708;49.466;11.176;2023-03-21T10:38:30;15.80;1.00
4699;DHT22;33708;49.466;11.176;2023-03-21T10:40:56;15.80;1.00
4699;DHT22;33708;49.466;11.176;2023-03-21T10:46:05;15.80;1.00
4699;DHT22;33708;49.466;11.176;2023-03-21T10:48:35;15.70;1.00
4699;DHT22;33708;49.466;11.176;2023-03-21T10:51:00;16.00;1.00
4699;DHT22;33708;49.466;11.176;2023-03-21T10:53:28;15.50;1.00
4699;DHT22;33708;49.466;11.176;2023-03-21T10:55:58;15.80;1.00
4699;DHT22;33708;49.466;11.176;2023-03-21T10:58:27;15.90;1.00
4699;DHT22;33708;49.466;11.176;2023-03-21T11:01:04;16.10;1.00
4699;DHT22;33708;49.466;11.176;2023-03-21T11:03:36;16.30;1.00
4699;DHT22;33708;49.466;11.176;2023-03-21T11:06:28;16.40;1.00
4699;DHT22;33708;49.466;11.176;2023-03-21T11:08:59;16.40;1.00
4699;DHT22;33708;49.466;11.176;2023-03-21T11:11:28;16.50;1.00
4699;DHT22;33708;49.466;11.176;2023-03-21T11:14:00;16.60;1.00
4699;DHT22;33708;49.466;11.176;2023-03-21T11:16:30;16.60;1.00
4699;DHT22;33708;49.466;11.176;2023-03-21T11:19:01;16.60;1.00
4699;DHT22;33708;49.466;11.176;2023-03-21T11:21:34;16.60;1.00
4699;DHT22;33708;49.466;11.176;2023-03-21T11:24:02;16.60;1.00
4699;DHT22;33708;49.466;11.176;2023-03-21T11:26:36;16.80;1.00
4699;DHT22;33708;49.466;11.176;2023-03-21T11:29:44;16.90;1.00
4699;DHT22;33708;49.466;11.176;2023-03-21T11:32:39;16.70;1.00
4699;DHT22;33708;49.466;11.176;2023-03-21T11:35:15;16.90;1.00
4699;DHT22;33708;49.466;11.176;2023-03-21T11:37:44;16.90;1.00
4699;DHT22;33708;49.466;11.176;2023-03-21T11:40:34;17.20;1.00
4699;DHT22;33708;49.466;11.176;2023-03-21T11:43:02;17.10;1.00
4699;DHT22;33708;49.466;11.176;2023-03-21T11:45:35;17.10;1.00
4699;DHT22;33708;49.466;11.176;2023-03-21T11:48:11;17.10;1.00
4699;DHT22;33708;49.466;11.176;2023-03-21T11:50:44;17.00;1.00
4699;DHT22;33708;49.466;11.176;2023-03-21T11:53:27;17.30;1.00
4699;DHT22;33708;49.466;11.176;2023-03-21T12:01:12;17.50;1.00
4699;DHT22;33708;49.466;11.176;2023-03-21T12:06:40;17.70;1.00
4699;DHT22;33708;49.466;11.176;2023-03-21T12:09:42;17.80;1.00
4699;DHT22;33708;49.466;11.176;2023-03-21T12:28:34;18.20;1.00
4699;DHT22;33708;49.466;11.176;2023-03-21T12:36:29;18.20;1.00
4699;DHT22;33708;49.466;11.176;2023-03-21T12:39:11;18.30;1.00
4699;DHT22;33708;49.466;11.176;2023-03-21T12:41:54;18.00;1.00
4699;DHT22;33708;49.466;11.176;2023-03-21T12:44:23;17.50;1.00
4699;DHT22;33708;49.466;11.176;2023-03-21T12:47:04;17.20;1.00
4699;DHT22;33708;49.466;11.176;2023-03-21T12:49:49;17.20;1.00
4699;DHT22;33708;49.466;11.176;2023-03-21T12:52:24;17.30;1.00
4699;DHT22;33708;49.466;11.176;2023-03-21T12:54:57;17.60;1.00
4699;DHT22;33708;49.466;11.176;2023-03-21T12:57:32;18.00;1.00
4699;DHT22;33708;49.466;11.176;2023-03-21T13:10:33;18.50;1.00
4699;DHT22;33708;49.466;11.176;2023-03-21T13:13:24;18.70;1.00
4699;DHT22;33708;49.466;11.176;2023-03-21T13:15:58;18.50;1.00
4699;DHT22;33708;49.466;11.176;2023-03-21T13:27:04;18.30;1.00
4699;DHT22;33708;49.466;11.176;2023-03-21T13:29:40;18.40;1.00
4699;DHT22;33708;49.466;11.176;2023-03-21T13:32:15;18.70;1.00
4699;DHT22;33708;49.466;11.176;2023-03-21T13:34:45;18.80;1.00
4699;DHT22;33708;49.466;11.176;2023-03-21T13:37:18;18.70;1.00
4699;DHT22;33708;49.466;11.176;2023-03-21T13:39:45;18.90;1.00
4699;DHT22;33708;49.466;11.176;2023-03-21T13:42:23;19.00;1.00
4699;DHT22;33708;49.466;11.176;2023-03-21T13:44:56;19.00;1.00
4699;DHT22;33708;49.466;11.176;2023-03-21T13:52:42;19.00;1.00
4699;DHT22;33708;49.466;11.176;2023-03-21T13:55:35;19.30;1.00
4699;DHT22;33708;49.466;11.176;2023-03-21T14:03:48;19.30;1.00
4699;DHT22;33708;49.466;11.176;2023-03-21T14:06:16;18.90;1.00
4699;DHT22;33708;49.466;11.176;2023-03-21T14:08:45;18.90;1.00
4699;DHT22;33708;49.466;11.176;2023-03-21T14:11:16;18.60;1.00
4699;DHT22;33708;49.466;11.176;2023-03-21T14:13:43;18.80;1.00
4699;DHT22;33708;49.466;11.176;2023-03-21T14:16:12;19.00;1.00
4699;DHT22;33708;49.466;11.176;2023-03-21T14:18:45;19.10;1.00
4699;DHT22;33708;49.466;11.176;2023-03-21T14:21:25;19.00;1.00
4699;DHT22;33708;49.466;11.176;2023-03-21T14:24:03;19.30;1.00
4699;DHT22;33708;49.466;11.176;2023-03-21T14:26:35;19.10;1.00
4699;DHT22;33708;49.466;11.176;2023-03-21T14:29:04;18.70;1.00
4699;DHT22;33708;49.466;11.176;2023-03-21T14:31:31;18.70;1.00
4699;DHT22;33708;49.466;11.176;2023-03-21T14:33:58;18.50;1.00
4699;DHT22;33708;49.466;11.176;2023-03-21T14:36:31;18.70;1.00
4699;DHT22;33708;49.466;11.176;2023-03-21T14:39:17;18.50;1.00
4699;DHT22;33708;49.466;11.176;2023-03-21T14:41:46;18.40;1.00
4699;DHT22;33708;49.466;11.176;2023-03-21T14:44:18;18.60;1.00
4699;DHT22;33708;49.466;11.176;2023-03-21T14:46:51;18.40;1.00
4699;DHT22;33708;49.466;11.176;2023-03-21T14:49:27;18.30;1.00
4699;DHT22;33708;49.466;11.176;2023-03-21T14:52:02;18.40;1.00
4699;DHT22;33708;49.466;11.176;2023-03-21T14:54:29;18.40;1.00
4699;DHT22;33708;49.466;11.176;2023-03-21T14:57:04;18.20;1.00
4699;DHT22;33708;49.466;11.176;2023-03-21T14:59:34;18.40;1.00
4699;DHT22;33708;49.466;11.176;2023-03-21T15:05:07;18.50;1.00
4699;DHT22;33708;49.466;11.176;2023-03-21T15:07:34;18.30;1.00
4699;DHT22;33708;49.466;11.176;2023-03-21T15:10:07;18.30;1.00
4699;DHT22;33708;49.466;11.176;2023-03-21T15:12:33;18.30;1.00
4699;DHT22;33708;49.466;11.176;2023-03-21T15:15:00;18.20;1.00
4699;DHT22;33708;49.466;11.176;2023-03-21T15:17:27;18.20;1.00
4699;DHT22;33708;49.466;11.176;2023-03-21T15:19:53;18.30;1.00
4699;DHT22;33708;49.466;11.176;2023-03-21T15:22:32;18.20;1.00
4699;DHT22;33708;49.466;11.176;2023-03-21T15:25:02;17.80;1.00
4699;DHT22;33708;49.466;11.176;2023-03-21T15:27:32;17.90;1.00
4699;DHT22;33708;49.466;11.176;2023-03-21T15:29:59;17.70;1.00
4699;DHT22;33708;49.466;11.176;2023-03-21T15:32:26;17.80;1.00
4699;DHT22;33708;49.466;11.176;2023-03-21T15:35:07;17.90;1.00
4699;DHT22;33708;49.466;11.176;2023-03-21T15:37:37;17.60;1.00
4699;DHT22;33708;49.466;11.176;2023-03-21T15:40:18;17.60;1.00
4699;DHT22;33708;49.466;11.176;2023-03-21T15:42:44;17.50;1.00
4699;DHT22;33708;49.466;11.176;2023-03-21T15:45:21;17.40;1.00
4699;DHT22;33708;49.466;11.176;2023-03-21T15:48:11;17.40;1.00
4699;DHT22;33708;49.466;11.176;2023-03-21T15:50:55;17.40;1.00
4699;DHT22;33708;49.466;11.176;2023-03-21T15:53:22;17.20;1.00
4699;DHT22;33708;49.466;11.176;2023-03-21T15:55:55;17.20;1.00
4699;DHT22;33708;49.466;11.176;2023-03-21T15:58:24;17.10;1.00
4699;DHT22;33708;49.466;11.176;2023-03-21T16:00:52;17.10;1.00
4699;DHT22;33708;49.466;11.176;2023-03-21T16:03:28;17.10;1.00
4699;DHT22;33708;49.466;11.176;2023-03-21T16:08:52;16.90;1.00
4699;DHT22;33708;49.466;11.176;2023-03-21T16:11:28;16.80;1.00
4699;DHT22;33708;49.466;11.176;2023-03-21T16:14:00;16.80;1.00
4699;DHT22;33708;49.466;11.176;2023-03-21T16:16:28;16.80;1.00
4699;DHT22;33708;49.466;11.176;2023-03-21T16:18:55;16.70;1.00
4699;DHT22;33708;49.466;11.176;2023-03-21T16:21:26;16.80;1.00
4699;DHT22;33708;49.466;11.176;2023-03-21T16:23:52;16.70;1.00
4699;DHT22;33708;49.466;11.176;2023-03-21T16:26:21;16.70;1.00
4699;DHT22;33708;49.466;11.176;2023-03-21T16:28:48;16.60;1.00
4699;DHT22;33708;49.466;11.176;2023-03-21T16:31:17;16.40;1.00
4699;DHT22;33708;49.466;11.176;2023-03-21T16:33:43;16.30;1.00
4699;DHT22;33708;49.466;11.176;2023-03-21T16:36:22;16.30;1.00
4699;DHT22;33708;49.466;11.176;2023-03-21T16:38:48;16.20;1.00
4699;DHT22;33708;49.466;11.176;2023-03-21T16:41:16;16.20;1.00
4699;DHT22;33708;49.466;11.176;2023-03-21T16:43:42;16.10;1.00
4699;DHT22;33708;49.466;11.176;2023-03-21T16:46:12;16.00;1.00
4699;DHT22;33708;49.466;11.176;2023-03-21T16:48:39;15.90;1.00
4699;DHT22;33708;49.466;11.176;2023-03-21T16:51:05;15.90;1.00
4699;DHT22;33708;49.466;11.176;2023-03-21T16:53:31;15.70;1.00
4699;DHT22;33708;49.466;11.176;2023-03-21T16:55:56;15.80;1.00
4699;DHT22;33708;49.466;11.176;2023-03-21T16:58:27;15.70;1.00
4699;DHT22;33708;49.466;11.176;2023-03-21T17:00:53;15.60;1.00
4699;DHT22;33708;49.466;11.176;2023-03-21T17:03:19;15.60;1.00
4699;DHT22;33708;49.466;11.176;2023-03-21T17:05:46;15.50;1.00
4699;DHT22;33708;49.466;11.176;2023-03-21T17:08:14;15.40;1.00
4699;DHT22;33708;49.466;11.176;2023-03-21T17:10:40;15.40;1.00
4699;DHT22;33708;49.466;11.176;2023-03-21T17:13:05;15.40;1.00
4699;DHT22;33708;49.466;11.176;2023-03-21T17:15:31;15.40;1.00
4699;DHT22;33708;49.466;11.176;2023-03-21T17:17:57;15.20;1.00
4699;DHT22;33708;49.466;11.176;2023-03-21T17:20:29;15.30;1.00
4699;DHT22;33708;49.466;11.176;2023-03-21T17:22:55;15.20;1.00
4699;DHT22;33708;49.466;11.176;2023-03-21T17:25:21;15.20;1.00
4699;DHT22;33708;49.466;11.176;2023-03-21T17:27:47;15.10;1.00
4699;DHT22;33708;49.466;11.176;2023-03-21T17:30:26;15.00;1.00
4699;DHT22;33708;49.466;11.176;2023-03-21T17:32:53;14.90;1.00
4699;DHT22;33708;49.466;11.176;2023-03-21T17:35:20;14.90;1.00